Time;durP1;ratioP1;P1;durP2;ratioP2;P2;SDS_P1;SDS_P2;PMS_P1;PMS_P2;Temp;Humidity;BMP_temperature;BMP_pressure;BME280_temperature;BME280_humidity;BME280_pressure;Samples;Min_cycle;Max_cycle;Signal;HPM_P1;HPM_P2
2023/11/30 00:02:24;;;;;;;0.87;0.87;;;-1.10;99.90;;;;;;5032778;28;20248;-85
2023/11/30 00:04:49;;;;;;;0.50;0.50;;;-1.00;99.90;;;;;;5016511;28;20226;-86
2023/11/30 00:07:15;;;;;;;2.30;1.53;;;-1.00;99.90;;;;;;4999803;28;20583;-85
2023/11/30 00:09:41;;;;;;;11.50;2.20;;;-1.00;99.90;;;;;;5032421;28;20190;-86
2023/11/30 00:12:07;;;;;;;0.53;0.53;;;-1.20;99.90;;;;;;5032267;28;20187;-85
2023/11/30 00:14:32;;;;;;;1.00;1.00;;;-1.40;99.90;;;;;;5016131;28;20309;-85
2023/11/30 00:16:58;;;;;;;0.70;0.70;;;-1.40;99.90;;;;;;5016022;28;20214;-85
2023/11/30 00:19:24;;;;;;;0.30;0.30;;;-1.30;99.90;;;;;;5016550;28;20179;-85
2023/11/30 00:21:50;;;;;;;0.50;0.50;;;-1.50;99.90;;;;;;4999281;28;20689;-85
2023/11/30 00:24:15;;;;;;;1.80;1.23;;;-1.60;99.90;;;;;;5015691;28;20179;-85
2023/11/30 00:26:43;;;;;;;2.00;1.50;;;-1.70;99.90;;;;;;5032445;28;20278;-85
2023/11/30 00:29:09;;;;;;;1.07;1.07;;;-1.50;99.90;;;;;;5033162;28;20195;-86
2023/11/30 00:31:35;;;;;;;0.80;0.80;;;-1.50;99.90;;;;;;4999521;28;20182;-85
2023/11/30 00:34:00;;;;;;;0.40;0.40;;;-1.50;99.90;;;;;;4999814;28;20687;-85
2023/11/30 00:36:26;;;;;;;0.37;0.37;;;-1.70;99.90;;;;;;5015794;28;20190;-86
2023/11/30 00:38:52;;;;;;;4.57;2.00;;;-1.80;99.90;;;;;;5032276;28;20278;-85
2023/11/30 00:41:18;;;;;;;0.30;0.30;;;-1.60;99.90;;;;;;5032515;28;20260;-85
2023/11/30 00:43:43;;;;;;;0.97;0.97;;;-1.70;99.90;;;;;;5015788;28;20206;-84
2023/11/30 00:46:14;;;;;;;0.20;0.20;;;-1.80;99.90;;;;;;5015485;28;20214;-85
2023/11/30 00:48:42;;;;;;;0.40;0.40;;;-1.60;99.90;;;;;;5032098;28;20175;-84
2023/11/30 00:51:09;;;;;;;0.40;0.40;;;-1.70;99.90;;;;;;5016006;28;20213;-85
2023/11/30 00:53:35;;;;;;;0.33;0.33;;;-1.60;99.90;;;;;;5031984;28;20228;-83
2023/11/30 00:56:01;;;;;;;0.60;0.60;;;-1.70;99.90;;;;;;5015844;28;20615;-85
2023/11/30 00:58:28;;;;;;;0.40;0.40;;;-1.70;99.90;;;;;;5016181;28;20587;-84
2023/11/30 01:00:54;;;;;;;0.30;0.30;;;-1.80;99.90;;;;;;5015151;28;20226;-83
2023/11/30 01:03:19;;;;;;;0.40;0.40;;;-1.70;99.90;;;;;;4998546;28;20630;-84
2023/11/30 01:05:45;;;;;;;0.43;0.43;;;-1.90;99.90;;;;;;4998705;28;20690;-85
2023/11/30 01:08:15;;;;;;;0.30;0.30;;;-1.70;99.90;;;;;;5015006;28;20515;-84
2023/11/30 01:10:44;;;;;;;0.57;0.57;;;-1.80;99.90;;;;;;5031645;28;20669;-84
2023/11/30 01:13:10;;;;;;;0.30;0.30;;;-1.90;99.90;;;;;;5031853;28;20194;-84
2023/11/30 01:15:35;;;;;;;1.23;1.23;;;-1.80;99.90;;;;;;5031245;28;20583;-84
2023/11/30 01:18:03;;;;;;;0.30;0.30;;;-2.10;99.90;;;;;;5015443;28;20183;-84
2023/11/30 01:20:30;;;;;;;0.50;0.50;;;-2.10;99.90;;;;;;5031097;28;20182;-84
2023/11/30 01:22:55;;;;;;;2.00;1.03;;;-2.10;99.90;;;;;;5031343;28;20669;-85
2023/11/30 01:25:21;;;;;;;0.73;0.73;;;-2.40;99.90;;;;;;4998611;28;20234;-85
2023/11/30 01:27:47;;;;;;;0.50;0.50;;;-2.40;99.90;;;;;;5015247;28;20645;-85
2023/11/30 01:30:13;;;;;;;1.13;1.13;;;-2.50;99.90;;;;;;5015238;28;20627;-85
2023/11/30 01:32:39;;;;;;;0.47;0.47;;;-3.20;99.90;;;;;;5014556;28;20183;-84
2023/11/30 01:35:06;;;;;;;0.93;0.93;;;-3.10;99.90;;;;;;5014841;28;20671;-85
2023/11/30 01:37:32;;;;;;;0.40;0.40;;;-3.00;99.90;;;;;;5031572;28;20190;-84
2023/11/30 01:39:57;;;;;;;0.80;0.80;;;-2.80;99.90;;;;;;4999046;28;20178;-84
2023/11/30 01:42:23;;;;;;;0.23;0.23;;;-2.60;99.90;;;;;;4998448;28;20626;-85
2023/11/30 01:44:49;;;;;;;0.20;0.20;;;-2.60;99.90;;;;;;5031331;28;20264;-84
2023/11/30 01:47:15;;;;;;;1.07;0.97;;;-2.50;99.90;;;;;;4998505;28;20599;-83
2023/11/30 01:49:41;;;;;;;1.50;0.50;;;-2.40;99.90;;;;;;4998631;28;20596;-83
2023/11/30 01:52:07;;;;;;;1.13;0.87;;;-2.50;99.90;;;;;;5032413;28;20179;-85
2023/11/30 01:54:34;;;;;;;0.20;0.20;;;-2.40;99.90;;;;;;5014943;28;20183;-84
2023/11/30 01:57:02;;;;;;;0.23;0.23;;;-2.50;99.90;;;;;;5032157;28;20191;-83
2023/11/30 01:59:28;;;;;;;1.90;1.80;;;-2.60;99.90;;;;;;5014900;28;20301;-83
2023/11/30 02:01:54;;;;;;;0.77;0.77;;;-3.10;99.90;;;;;;4998758;28;20305;-83
2023/11/30 02:04:21;;;;;;;2.83;1.23;;;-3.10;99.90;;;;;;5032822;28;20277;-84
2023/11/30 02:06:47;;;;;;;0.20;0.20;;;-3.10;99.90;;;;;;5018771;28;20264;-83
2023/11/30 02:09:13;;;;;;;0.20;0.20;;;-3.00;99.90;;;;;;5018269;28;20179;-84
2023/11/30 02:11:40;;;;;;;0.40;0.40;;;-2.90;99.90;;;;;;5036671;28;20685;-84
2023/11/30 02:14:06;;;;;;;2.17;2.07;;;-2.70;99.90;;;;;;5036157;28;20178;-84
2023/11/30 02:16:32;;;;;;;0.20;0.20;;;-2.70;99.90;;;;;;5034912;28;20195;-84
2023/11/30 02:18:59;;;;;;;0.50;0.50;;;-3.20;99.90;;;;;;5018485;28;20233;-85
2023/11/30 02:21:25;;;;;;;0.60;0.60;;;-3.30;99.90;;;;;;5034519;28;20178;-83
2023/11/30 02:23:50;;;;;;;0.30;0.30;;;-3.50;99.90;;;;;;5034888;28;20248;-84
2023/11/30 02:26:17;;;;;;;0.50;0.50;;;-3.40;99.90;;;;;;5002005;28;20214;-83
2023/11/30 02:28:43;;;;;;;0.20;0.20;;;-3.30;99.90;;;;;;5017915;28;20187;-83
2023/11/30 02:31:09;;;;;;;0.40;0.40;;;-3.30;99.90;;;;;;5034567;28;20179;-84
2023/11/30 02:33:35;;;;;;;0.20;0.20;;;-3.30;99.90;;;;;;5018561;28;20218;-83
2023/11/30 02:36:00;;;;;;;0.30;0.30;;;-3.20;99.90;;;;;;5018420;28;20646;-84
2023/11/30 02:38:26;;;;;;;0.33;0.33;;;-3.20;99.90;;;;;;5018036;28;20290;-82
2023/11/30 02:40:52;;;;;;;0.20;0.20;;;-3.30;99.90;;;;;;5017941;28;20228;-84
2023/11/30 02:43:18;;;;;;;0.20;0.20;;;-3.40;99.90;;;;;;5001594;28;20186;-83
2023/11/30 02:45:43;;;;;;;0.67;0.67;;;-3.50;99.90;;;;;;5017434;28;20305;-83
2023/11/30 02:48:09;;;;;;;0.20;0.20;;;-3.50;99.90;;;;;;5035155;28;20654;-84
2023/11/30 02:50:35;;;;;;;0.10;0.10;;;-3.50;99.90;;;;;;5017523;28;20186;-83
2023/11/30 02:53:00;;;;;;;0.20;0.20;;;-3.40;99.90;;;;;;5001385;28;20210;-82
2023/11/30 02:55:26;;;;;;;0.20;0.20;;;-3.20;99.90;;;;;;5017788;28;20640;-83
2023/11/30 02:57:52;;;;;;;0.20;0.20;;;-3.20;99.90;;;;;;5017130;28;20183;-84
2023/11/30 03:00:18;;;;;;;0.30;0.30;;;-3.00;99.90;;;;;;5017255;28;20234;-84
2023/11/30 03:02:44;;;;;;;0.93;0.93;;;-3.10;99.90;;;;;;5001259;28;20202;-83
2023/11/30 03:05:10;;;;;;;0.20;0.20;;;-3.10;99.90;;;;;;5017288;28;20217;-83
2023/11/30 03:07:36;;;;;;;1.50;0.63;;;-3.00;99.90;;;;;;5033559;28;20274;-83
2023/11/30 03:10:02;;;;;;;0.63;0.63;;;-3.10;99.90;;;;;;5033887;28;20178;-83
2023/11/30 03:12:28;;;;;;;0.20;0.20;;;-3.10;99.90;;;;;;5017483;28;20175;-84
2023/11/30 03:14:54;;;;;;;0.20;0.20;;;-2.90;99.90;;;;;;5000914;28;20178;-84
2023/11/30 03:17:20;;;;;;;0.70;0.70;;;-3.10;99.90;;;;;;5000552;28;20649;-84
2023/11/30 03:19:46;;;;;;;0.20;0.20;;;-3.00;99.90;;;;;;5035032;28;20186;-84
2023/11/30 03:22:12;;;;;;;1.70;1.07;;;-3.00;99.90;;;;;;5017305;28;20262;-84
2023/11/30 03:24:38;;;;;;;0.20;0.20;;;-3.20;99.90;;;;;;5000483;28;20215;-83
2023/11/30 03:27:03;;;;;;;0.47;0.47;;;-3.10;99.90;;;;;;5000889;28;20179;-84
2023/11/30 03:29:29;;;;;;;0.20;0.20;;;-3.10;99.90;;;;;;5017108;28;20186;-84
2023/11/30 03:31:55;;;;;;;0.27;0.27;;;-3.00;99.90;;;;;;5016880;28;20581;-84
2023/11/30 03:34:21;;;;;;;0.30;0.30;;;-3.10;99.90;;;;;;5034517;28;20171;-84
2023/11/30 03:36:46;;;;;;;0.10;0.10;;;-2.90;99.90;;;;;;5033010;28;20578;-84
2023/11/30 03:39:12;;;;;;;3.00;0.60;;;-2.80;99.90;;;;;;5000348;28;20225;-84
2023/11/30 03:41:38;;;;;;;0.50;0.50;;;-2.60;99.90;;;;;;5000555;28;20179;-83
2023/11/30 03:44:04;;;;;;;0.30;0.30;;;-2.80;99.90;;;;;;5000552;28;20183;-83
2023/11/30 03:46:29;;;;;;;0.63;0.63;;;-2.70;99.90;;;;;;5016585;28;20229;-84
2023/11/30 03:48:55;;;;;;;0.53;0.53;;;-2.50;99.90;;;;;;5016947;28;20289;-84
2023/11/30 03:51:21;;;;;;;0.50;0.50;;;-2.60;99.90;;;;;;5033909;28;20638;-84
2023/11/30 03:53:47;;;;;;;0.30;0.30;;;-2.70;99.90;;;;;;5032943;28;20182;-84
2023/11/30 03:56:13;;;;;;;0.30;0.30;;;-2.60;99.90;;;;;;5016869;28;20237;-84
2023/11/30 03:58:39;;;;;;;0.20;0.20;;;-2.90;99.90;;;;;;5032694;28;20182;-84
2023/11/30 04:01:06;;;;;;;0.17;0.17;;;-3.00;99.90;;;;;;5032937;28;20275;-84
2023/11/30 04:03:32;;;;;;;0.97;0.90;;;-3.00;99.90;;;;;;5032559;28;20269;-84
2023/11/30 04:05:58;;;;;;;0.30;0.30;;;-3.00;99.90;;;;;;5015940;28;20241;-84
2023/11/30 04:08:24;;;;;;;0.30;0.30;;;-3.00;99.90;;;;;;5015990;28;20619;-84
2023/11/30 04:10:50;;;;;;;0.20;0.20;;;-2.90;99.90;;;;;;5016174;28;20633;-84
2023/11/30 04:13:16;;;;;;;0.20;0.20;;;-2.90;99.90;;;;;;5000252;28;20261;-84
2023/11/30 04:15:42;;;;;;;0.10;0.10;;;-2.90;99.90;;;;;;5016457;28;20189;-83
2023/11/30 04:18:07;;;;;;;0.40;0.40;;;-3.10;99.90;;;;;;5016252;28;20262;-82
2023/11/30 04:20:33;;;;;;;0.20;0.20;;;-3.10;99.90;;;;;;5015723;28;20179;-83
2023/11/30 04:22:59;;;;;;;0.93;0.93;;;-2.90;99.90;;;;;;4999718;28;20182;-82
2023/11/30 04:25:24;;;;;;;0.20;0.20;;;-2.90;99.90;;;;;;5032530;28;20222;-84
2023/11/30 04:27:50;;;;;;;2.67;0.97;;;-2.90;99.90;;;;;;5014810;28;20573;-83
2023/11/30 04:30:16;;;;;;;0.83;0.83;;;-2.90;99.90;;;;;;4999761;28;20627;-83
2023/11/30 04:32:41;;;;;;;0.33;0.33;;;-2.90;99.90;;;;;;5031920;28;20266;-82
2023/11/30 04:35:07;;;;;;;0.30;0.30;;;-2.90;99.90;;;;;;5032766;28;20214;-84
2023/11/30 04:37:33;;;;;;;0.20;0.20;;;-3.00;99.90;;;;;;4999090;28;20198;-83
2023/11/30 04:39:59;;;;;;;0.53;0.53;;;-3.00;99.90;;;;;;5015638;28;20175;-82
2023/11/30 04:42:25;;;;;;;0.50;0.50;;;-2.80;99.90;;;;;;4999101;28;20175;-84
2023/11/30 04:44:51;;;;;;;0.20;0.20;;;-2.90;99.90;;;;;;5031911;28;20250;-83
2023/11/30 04:47:16;;;;;;;1.30;0.80;;;-2.80;99.90;;;;;;4999221;28;20206;-84
2023/11/30 04:49:43;;;;;;;0.17;0.17;;;-2.70;99.90;;;;;;5032260;28;20233;-83
2023/11/30 04:52:09;;;;;;;0.40;0.40;;;-2.80;99.90;;;;;;5031927;28;20182;-84
2023/11/30 04:54:35;;;;;;;0.60;0.60;;;-3.10;99.90;;;;;;5015421;28;20190;-84
2023/11/30 04:57:01;;;;;;;0.20;0.20;;;-2.90;99.90;;;;;;5015474;28;20175;-83
2023/11/30 04:59:26;;;;;;;0.40;0.40;;;-3.00;99.90;;;;;;4999345;28;20520;-83
2023/11/30 05:01:52;;;;;;;0.53;0.53;;;-2.90;99.90;;;;;;5015036;28;20632;-83
2023/11/30 05:04:18;;;;;;;0.60;0.60;;;-3.10;99.90;;;;;;5015003;28;20218;-83
2023/11/30 05:06:43;;;;;;;0.17;0.17;;;-2.90;99.90;;;;;;5015099;28;20263;-84
2023/11/30 05:09:09;;;;;;;0.63;0.63;;;-2.90;99.90;;;;;;5015993;28;20733;-84
2023/11/30 05:11:35;;;;;;;0.20;0.20;;;-3.10;99.90;;;;;;4998867;28;20210;-84
2023/11/30 05:14:01;;;;;;;0.97;0.97;;;-3.10;99.90;;;;;;5032242;28;20237;-83
2023/11/30 05:16:27;;;;;;;0.10;0.10;;;-2.70;99.90;;;;;;5014924;28;20545;-83
2023/11/30 05:18:52;;;;;;;0.57;0.57;;;-2.60;99.90;;;;;;5015267;28;20194;-83
2023/11/30 05:21:18;;;;;;;0.10;0.10;;;-2.30;99.90;;;;;;5031355;28;20584;-84
2023/11/30 05:23:44;;;;;;;0.20;0.20;;;-2.10;99.90;;;;;;5014863;28;20187;-84
2023/11/30 05:26:10;;;;;;;0.40;0.40;;;-2.20;99.90;;;;;;5015203;28;20221;-84
2023/11/30 05:28:37;;;;;;;0.13;0.13;;;-2.10;99.90;;;;;;5031734;28;20179;-85
2023/11/30 05:31:03;;;;;;;0.13;0.13;;;-2.00;99.90;;;;;;5032895;28;20239;-82
2023/11/30 05:33:31;;;;;;;0.20;0.20;;;-2.20;99.90;;;;;;5031801;28;20664;-84
2023/11/30 05:35:57;;;;;;;0.20;0.20;;;-1.90;99.90;;;;;;5015145;28;20182;-83
2023/11/30 05:38:23;;;;;;;0.50;0.50;;;-2.20;99.90;;;;;;5014871;28;20230;-84
2023/11/30 05:40:48;;;;;;;1.23;1.23;;;-1.80;99.90;;;;;;5035130;28;20701;-84
2023/11/30 05:43:15;;;;;;;1.77;1.67;;;-1.60;99.90;;;;;;5018868;28;20276;-83
2023/11/30 05:45:41;;;;;;;0.60;0.60;;;-1.60;99.90;;;;;;5035242;28;20351;-85
2023/11/30 05:48:06;;;;;;;1.77;0.70;;;-1.60;99.90;;;;;;5037382;28;20623;-84
2023/11/30 05:50:32;;;;;;;2.20;1.70;;;-1.30;99.90;;;;;;5035573;28;20616;-83
2023/11/30 05:52:58;;;;;;;0.20;0.20;;;-1.30;99.90;;;;;;5036385;28;20531;-82
2023/11/30 05:55:24;;;;;;;0.10;0.10;;;-1.40;99.90;;;;;;5002136;28;20657;-81
2023/11/30 05:57:49;;;;;;;1.87;1.33;;;-1.40;99.90;;;;;;5018822;28;20736;-82
2023/11/30 06:00:16;;;;;;;0.60;0.60;;;-1.30;99.90;;;;;;5017877;28;20231;-81
2023/11/30 06:02:42;;;;;;;0.50;0.50;;;-1.30;99.90;;;;;;5034385;28;20186;-83
2023/11/30 06:05:08;;;;;;;0.93;0.93;;;-1.80;99.90;;;;;;5001875;28;20249;-82
2023/11/30 06:07:36;;;;;;;0.50;0.50;;;-2.10;99.90;;;;;;5034501;28;20313;-81
2023/11/30 06:10:02;;;;;;;0.40;0.40;;;-2.20;99.90;;;;;;5034527;28;20175;-81
2023/11/30 06:12:27;;;;;;;0.60;0.60;;;-2.40;99.90;;;;;;5034420;28;20183;-82
2023/11/30 06:14:53;;;;;;;1.27;1.27;;;-2.10;99.90;;;;;;5034813;28;20195;-82
2023/11/30 06:17:19;;;;;;;1.40;1.40;;;-2.20;99.90;;;;;;5001466;28;20270;-83
2023/11/30 06:19:45;;;;;;;0.33;0.33;;;-2.10;99.90;;;;;;5034362;28;20193;-85
2023/11/30 06:22:11;;;;;;;0.93;0.93;;;-2.40;99.90;;;;;;5035063;28;20186;-83
2023/11/30 06:24:36;;;;;;;1.63;1.47;;;-2.40;99.90;;;;;;5035507;28;20610;-83
2023/11/30 06:27:02;;;;;;;0.30;0.30;;;-2.40;99.90;;;;;;5019279;28;20305;-85
2023/11/30 06:29:31;;;;;;;0.60;0.60;;;-2.30;99.90;;;;;;5034441;28;20591;-84
2023/11/30 06:31:59;;;;;;;0.33;0.33;;;-2.30;99.90;;;;;;5018553;28;20193;-83
2023/11/30 06:34:25;;;;;;;0.60;0.60;;;-2.30;99.90;;;;;;5034380;28;20190;-83
2023/11/30 06:36:51;;;;;;;0.30;0.30;;;-2.10;99.90;;;;;;5034114;28;20238;-82
2023/11/30 06:39:16;;;;;;;1.17;1.07;;;-2.00;99.90;;;;;;5017561;28;20209;-83
2023/11/30 06:41:46;;;;;;;0.97;0.97;;;-2.20;99.90;;;;;;5018001;28;20205;-84
2023/11/30 06:44:11;;;;;;;0.90;0.90;;;-1.90;99.90;;;;;;5018351;28;20210;-82
2023/11/30 06:46:41;;;;;;;0.70;0.70;;;-2.00;99.90;;;;;;5017935;28;20253;-83
2023/11/30 06:49:07;;;;;;;1.17;1.17;;;-2.10;99.90;;;;;;5002923;28;20185;-82
2023/11/30 06:51:33;;;;;;;0.20;0.20;;;-2.00;99.90;;;;;;5033192;28;20187;-84
2023/11/30 06:53:58;;;;;;;1.00;1.00;;;-1.90;99.90;;;;;;5034940;28;20234;-84
2023/11/30 06:56:24;;;;;;;0.20;0.20;;;-2.00;99.90;;;;;;5001299;28;20269;-82
2023/11/30 06:58:50;;;;;;;0.63;0.63;;;-2.20;99.90;;;;;;5001268;28;20183;-84
2023/11/30 07:01:16;;;;;;;2.37;1.53;;;-2.00;99.90;;;;;;5033876;28;20694;-83
2023/11/30 07:03:43;;;;;;;0.30;0.30;;;-2.10;99.90;;;;;;5016988;28;20191;-83
2023/11/30 07:06:09;;;;;;;0.20;0.20;;;-2.20;99.90;;;;;;5034879;28;20665;-80
2023/11/30 07:08:35;;;;;;;0.60;0.60;;;-2.20;99.90;;;;;;5033614;28;20179;-83
2023/11/30 07:11:00;;;;;;;0.50;0.50;;;-2.00;99.90;;;;;;5033504;28;20203;-83
2023/11/30 07:13:26;;;;;;;0.40;0.40;;;-1.90;99.90;;;;;;5017244;28;20210;-84
2023/11/30 07:15:52;;;;;;;0.97;0.97;;;-1.80;99.90;;;;;;5017931;28;20195;-85
2023/11/30 07:18:18;;;;;;;2.10;1.43;;;-1.80;99.90;;;;;;5001271;28;20663;-83
2023/11/30 07:20:44;;;;;;;1.90;1.03;;;-1.90;99.90;;;;;;5034886;28;20664;-84
2023/11/30 07:23:12;;;;;;;0.40;0.40;;;-1.70;99.90;;;;;;5017578;28;20183;-85
2023/11/30 07:25:38;;;;;;;2.40;1.80;;;-1.80;99.90;;;;;;5017200;28;20211;-84
2023/11/30 07:28:04;;;;;;;0.30;0.30;;;-1.80;99.90;;;;;;5001270;28;20571;-81
2023/11/30 07:30:30;;;;;;;0.50;0.50;;;-1.40;99.90;;;;;;5033566;28;20240;-80
2023/11/30 07:32:56;;;;;;;0.20;0.20;;;-1.20;99.90;;;;;;5016535;28;20325;-81
2023/11/30 07:35:22;;;;;;;0.37;0.37;;;-1.30;99.90;;;;;;5016140;28;20213;-81
2023/11/30 07:37:47;;;;;;;1.33;1.33;;;-0.90;99.90;;;;;;5033050;28;20179;-81
2023/11/30 07:40:13;;;;;;;1.27;1.27;;;-0.90;99.90;;;;;;5033183;28;20655;-82
2023/11/30 07:42:39;;;;;;;0.23;0.23;;;-0.90;99.90;;;;;;5033210;28;20254;-81
2023/11/30 07:45:05;;;;;;;0.30;0.30;;;-0.60;99.90;;;;;;5032785;28;20671;-81
2023/11/30 07:47:31;;;;;;;0.60;0.60;;;-0.50;99.90;;;;;;5015603;28;20582;-81
2023/11/30 07:49:57;;;;;;;0.53;0.53;;;-0.10;99.90;;;;;;5032045;28;20217;-80
2023/11/30 07:52:22;;;;;;;0.80;0.80;;;-0.40;99.90;;;;;;5031887;28;20182;-82
2023/11/30 07:54:48;;;;;;;0.70;0.70;;;-0.20;99.90;;;;;;5016511;28;20186;-82
2023/11/30 07:57:16;;;;;;;0.53;0.53;;;0.00;99.90;;;;;;5015678;28;20179;-81
2023/11/30 07:59:41;;;;;;;0.70;0.70;;;-0.10;99.90;;;;;;5032485;28;20187;-82
2023/11/30 08:02:08;;;;;;;0.83;0.83;;;-0.40;99.90;;;;;;4999469;28;20245;-81
2023/11/30 08:04:36;;;;;;;0.70;0.70;;;-0.10;99.90;;;;;;4999522;28;20322;-81
2023/11/30 08:07:02;;;;;;;1.60;1.50;;;-0.10;99.90;;;;;;5015233;28;20199;-82
2023/11/30 08:09:30;;;;;;;1.07;1.07;;;-0.20;99.90;;;;;;5015382;28;20202;-81
2023/11/30 08:11:56;;;;;;;0.30;0.30;;;-0.30;99.90;;;;;;5015801;28;20241;-80
2023/11/30 08:14:22;;;;;;;0.40;0.40;;;-0.40;99.90;;;;;;5032457;28;20186;-81
2023/11/30 08:16:48;;;;;;;0.67;0.67;;;-0.20;99.90;;;;;;4999184;28;20600;-81
2023/11/30 08:19:13;;;;;;;0.20;0.20;;;-0.30;99.90;;;;;;5031580;28;20215;-81
2023/11/30 08:21:41;;;;;;;0.40;0.40;;;-0.50;99.90;;;;;;5015048;28;20290;-82
2023/11/30 08:24:08;;;;;;;0.43;0.43;;;-0.30;99.90;;;;;;5015258;28;20186;-80
2023/11/30 08:26:34;;;;;;;0.50;0.50;;;-0.40;99.90;;;;;;5015399;28;20207;-81
2023/11/30 08:29:00;;;;;;;1.07;1.07;;;-0.50;99.90;;;;;;5014833;28;20209;-81
2023/11/30 08:31:25;;;;;;;1.00;1.00;;;-0.50;99.90;;;;;;5031193;28;20215;-81
2023/11/30 08:33:51;;;;;;;1.27;1.27;;;-0.20;99.90;;;;;;5032569;28;20630;-82
2023/11/30 08:36:17;;;;;;;0.20;0.20;;;-0.10;99.90;;;;;;5032862;28;20182;-81
2023/11/30 08:38:44;;;;;;;0.43;0.43;;;-0.10;99.90;;;;;;5031146;28;20543;-81
2023/11/30 08:41:10;;;;;;;1.50;1.27;;;-0.20;99.90;;;;;;5031708;28;20187;-81
2023/11/30 08:43:35;;;;;;;0.63;0.63;;;0.10;99.90;;;;;;5015516;28;20257;-82
2023/11/30 08:46:01;;;;;;;0.40;0.40;;;0.20;99.90;;;;;;5015021;28;20224;-80
2023/11/30 08:48:27;;;;;;;0.90;0.90;;;-0.10;99.90;;;;;;5031449;28;20623;-83
2023/11/30 08:50:53;;;;;;;0.37;0.37;;;-0.10;99.90;;;;;;5015163;28;20183;-83
2023/11/30 08:53:20;;;;;;;0.83;0.83;;;0.20;99.90;;;;;;5031298;28;20640;-83
2023/11/30 08:55:46;;;;;;;0.50;0.50;;;0.10;99.90;;;;;;5015319;28;20222;-82
2023/11/30 08:58:16;;;;;;;0.27;0.27;;;0.70;99.90;;;;;;5032381;28;20627;-82
2023/11/30 09:00:42;;;;;;;0.70;0.70;;;1.00;99.90;;;;;;5014741;28;20276;-82
2023/11/30 09:03:08;;;;;;;0.20;0.20;;;1.40;99.90;;;;;;5014971;28;20496;-82
2023/11/30 09:05:34;;;;;;;0.30;0.30;;;1.80;99.90;;;;;;5031135;28;20199;-83
2023/11/30 09:08:00;;;;;;;0.43;0.43;;;2.00;99.90;;;;;;5031650;28;20205;-83
2023/11/30 09:10:26;;;;;;;0.50;0.50;;;2.10;99.90;;;;;;5031016;28;20635;-83
2023/11/30 09:12:52;;;;;;;0.67;0.67;;;2.10;99.90;;;;;;5014820;28;20194;-84
2023/11/30 09:15:19;;;;;;;2.10;1.27;;;2.00;99.90;;;;;;5030915;28;20195;-82
2023/11/30 09:17:45;;;;;;;0.30;0.30;;;2.00;99.90;;;;;;4998537;28;20183;-83
2023/11/30 09:20:11;;;;;;;1.23;1.23;;;1.80;99.90;;;;;;4998209;28;20266;-84
2023/11/30 09:22:37;;;;;;;1.83;1.73;;;1.70;99.90;;;;;;5014356;28;20269;-83
2023/11/30 09:25:04;;;;;;;0.70;0.70;;;1.70;99.90;;;;;;5030922;28;20272;-81
2023/11/30 09:27:30;;;;;;;0.93;0.93;;;1.70;99.90;;;;;;5014514;28;20277;-84
2023/11/30 09:29:56;;;;;;;1.90;1.80;;;1.50;99.90;;;;;;5014667;28;20217;-84
2023/11/30 09:32:22;;;;;;;0.60;0.60;;;1.70;99.90;;;;;;5030854;28;20179;-83
2023/11/30 09:34:48;;;;;;;0.40;0.40;;;1.70;99.90;;;;;;5014925;28;20658;-83
2023/11/30 09:37:14;;;;;;;0.30;0.30;;;1.60;99.90;;;;;;5032131;28;20669;-83
2023/11/30 09:39:40;;;;;;;1.80;0.83;;;1.60;99.90;;;;;;5014907;28;20197;-83
2023/11/30 09:42:08;;;;;;;0.93;0.93;;;1.80;99.90;;;;;;5014934;28;20620;-83
2023/11/30 09:44:34;;;;;;;1.27;1.13;;;1.90;99.90;;;;;;5015309;28;20178;-83
2023/11/30 09:46:59;;;;;;;0.30;0.30;;;2.00;99.90;;;;;;5030972;28;20607;-83
2023/11/30 09:49:25;;;;;;;0.77;0.77;;;1.90;99.90;;;;;;5015194;28;20190;-84
2023/11/30 09:51:52;;;;;;;1.17;1.17;;;2.00;99.90;;;;;;4998675;28;20211;-83
2023/11/30 09:54:19;;;;;;;0.57;0.57;;;1.70;99.90;;;;;;5015100;28;20187;-82
2023/11/30 09:56:45;;;;;;;0.47;0.47;;;1.90;99.90;;;;;;5030930;28;20558;-83
2023/11/30 09:59:11;;;;;;;0.30;0.30;;;1.90;99.90;;;;;;5031135;28;20266;-82
2023/11/30 10:01:41;;;;;;;0.30;0.30;;;1.90;99.90;;;;;;5030754;28;20288;-83
2023/11/30 10:04:14;;;;;;;0.97;0.97;;;1.90;99.90;;;;;;4998959;28;20187;-83
2023/11/30 10:06:40;;;;;;;0.60;0.60;;;1.90;99.90;;;;;;5014784;28;20217;-84
2023/11/30 10:09:09;;;;;;;2.00;1.30;;;2.20;99.90;;;;;;5014964;28;20581;-85
2023/11/30 10:11:35;;;;;;;0.63;0.63;;;2.20;99.90;;;;;;5031402;28;20634;-85
2023/11/30 10:14:01;;;;;;;0.40;0.40;;;2.00;99.90;;;;;;5031070;28;20206;-85
2023/11/30 10:16:26;;;;;;;1.53;1.43;;;1.70;99.90;;;;;;4999018;28;20183;-85
2023/11/30 10:18:52;;;;;;;0.90;0.40;;;1.90;99.90;;;;;;4998623;28;20270;-84
2023/11/30 10:21:21;;;;;;;2.07;1.97;;;2.00;99.90;;;;;;5031681;28;20256;-85
2023/11/30 10:23:47;;;;;;;0.87;0.87;;;2.20;99.90;;;;;;5031592;28;20183;-86
2023/11/30 10:26:16;;;;;;;0.30;0.30;;;2.20;99.90;;;;;;5018043;28;20203;-87
2023/11/30 10:28:42;;;;;;;0.40;0.40;;;2.30;99.90;;;;;;5019316;28;20183;-89
2023/11/30 10:31:10;;;;;;;0.40;0.40;;;2.60;99.90;;;;;;5002379;28;20725;-86
2023/11/30 10:33:40;;;;;;;0.43;0.43;;;2.90;99.90;;;;;;5036863;28;20198;-87
2023/11/30 10:36:08;;;;;;;1.23;1.13;;;3.20;99.90;;;;;;5018781;28;20202;-85
2023/11/30 10:38:34;;;;;;;0.40;0.40;;;3.40;99.90;;;;;;5036526;28;20175;-89
2023/11/30 10:41:06;;;;;;;1.70;1.60;;;3.60;99.90;;;;;;5018632;28;20184;-88
2023/11/30 10:43:36;;;;;;;0.57;0.57;;;3.80;99.90;;;;;;5034793;28;20217;-87
2023/11/30 10:46:04;;;;;;;0.90;0.90;;;3.50;99.90;;;;;;5034853;28;20234;-87
2023/11/30 10:48:32;;;;;;;1.93;1.53;;;3.60;99.90;;;;;;5018413;28;20182;-87
2023/11/30 10:50:58;;;;;;;0.57;0.57;;;3.30;99.90;;;;;;5034819;28;20549;-87
2023/11/30 10:54:01;;;;;;;1.10;1.10;;;3.00;99.90;;;;;;5034535;28;20186;-86
2023/11/30 10:56:29;;;;;;;2.63;2.13;;;3.20;99.90;;;;;;5034630;28;20224;-87
2023/11/30 10:58:58;;;;;;;1.97;1.87;;;4.00;99.90;;;;;;5017657;28;20179;-86
2023/11/30 11:01:26;;;;;;;0.83;0.43;;;4.70;99.90;;;;;;5011550;28;20570;-86
2023/11/30 11:03:57;;;;;;;1.13;0.90;;;5.40;99.90;;;;;;4997863;28;20215;-85
2023/11/30 11:06:26;;;;;;;1.03;0.93;;;6.00;99.90;;;;;;5013925;28;20285;-86
2023/11/30 11:08:59;;;;;;;1.37;1.27;;;6.40;99.90;;;;;;4997693;28;20187;-86
2023/11/30 11:11:28;;;;;;;0.93;0.93;;;6.50;99.90;;;;;;4997966;28;20274;-86
2023/11/30 11:13:54;;;;;;;2.20;2.00;;;6.50;99.90;;;;;;4997799;28;20259;-86
2023/11/30 11:16:31;;;;;;;0.87;0.87;;;6.40;99.90;;;;;;4997656;28;20217;-86
2023/11/30 11:19:01;;;;;;;0.93;0.93;;;6.20;99.90;;;;;;5013981;28;20175;-85
2023/11/30 11:21:28;;;;;;;0.67;0.67;;;6.00;99.90;;;;;;4998250;28;20538;-86
2023/11/30 11:24:03;;;;;;;0.40;0.40;;;5.80;99.90;;;;;;5015204;28;20223;-85
2023/11/30 11:26:45;;;;;;;0.57;0.57;;;5.50;99.90;;;;;;4997152;28;20221;-82
2023/11/30 11:29:15;;;;;;;0.80;0.80;;;5.30;99.90;;;;;;4997488;28;20184;-83
2023/11/30 11:31:42;;;;;;;0.40;0.40;;;5.00;99.90;;;;;;4996877;28;20226;-85
2023/11/30 11:34:08;;;;;;;1.37;1.23;;;4.90;99.90;;;;;;4997148;28;20620;-83
2023/11/30 11:36:38;;;;;;;1.40;1.40;;;4.40;99.90;;;;;;4996748;28;20191;-84
2023/11/30 11:39:05;;;;;;;0.80;0.80;;;3.80;99.90;;;;;;4997170;28;20238;-82
2023/11/30 11:41:31;;;;;;;0.30;0.30;;;3.80;99.90;;;;;;4997657;28;20214;-82
2023/11/30 11:43:57;;;;;;;0.60;0.60;;;3.90;99.90;;;;;;4996864;28;20195;-83
2023/11/30 11:46:23;;;;;;;0.97;0.97;;;3.90;99.90;;;;;;4996730;28;20260;-83
2023/11/30 11:48:49;;;;;;;0.60;0.50;;;3.70;99.90;;;;;;4996478;28;20187;-83
2023/11/30 11:51:14;;;;;;;2.00;1.23;;;3.80;99.90;;;;;;4980340;28;20183;-83
2023/11/30 11:53:40;;;;;;;1.40;1.20;;;3.80;99.90;;;;;;4996587;28;20271;-83
2023/11/30 11:56:08;;;;;;;0.47;0.47;;;4.00;99.90;;;;;;4980119;28;20188;-84
2023/11/30 11:58:39;;;;;;;0.77;0.77;;;4.10;99.90;;;;;;4997262;28;20206;-86
2023/11/30 12:01:05;;;;;;;0.50;0.50;;;4.00;99.90;;;;;;4989454;28;20664;-84
2023/11/30 12:03:31;;;;;;;2.33;0.87;;;4.30;99.90;;;;;;4984247;28;20278;-85
2023/11/30 12:05:59;;;;;;;0.53;0.53;;;4.40;99.90;;;;;;4984176;28;20688;-85
2023/11/30 12:08:32;;;;;;;0.67;0.67;;;4.60;99.90;;;;;;4984483;28;20202;-84
2023/11/30 12:10:58;;;;;;;1.97;1.70;;;4.80;99.90;;;;;;5000731;28;20521;-85
2023/11/30 12:13:26;;;;;;;1.30;1.23;;;4.90;99.90;;;;;;4984030;28;20236;-84
2023/11/30 12:15:55;;;;;;;1.67;1.57;;;4.70;99.90;;;;;;4984652;28;20198;-85
2023/11/30 12:18:21;;;;;;;3.00;1.33;;;4.70;99.90;;;;;;5033467;28;20199;-83
2023/11/30 12:20:47;;;;;;;1.90;1.23;;;4.40;99.90;;;;;;5016222;28;20175;-83
2023/11/30 12:23:14;;;;;;;1.97;1.87;;;4.60;99.90;;;;;;4999792;28;20182;-85
2023/11/30 12:25:39;;;;;;;0.77;0.77;;;4.70;99.90;;;;;;5033575;28;20207;-85
2023/11/30 12:28:06;;;;;;;1.43;1.43;;;4.80;99.90;;;;;;5016778;28;20556;-85
2023/11/30 12:30:32;;;;;;;1.03;0.93;;;4.70;99.90;;;;;;5016067;28;20182;-85
2023/11/30 12:32:58;;;;;;;1.40;1.40;;;4.60;99.90;;;;;;4984084;28;20232;-84
2023/11/30 12:35:24;;;;;;;1.03;0.93;;;4.30;99.90;;;;;;5016002;28;20631;-85
2023/11/30 12:37:50;;;;;;;0.93;0.60;;;4.20;99.90;;;;;;4983680;28;20190;-86
2023/11/30 12:40:16;;;;;;;0.53;0.53;;;4.10;99.90;;;;;;5016247;28;20186;-86
2023/11/30 12:42:42;;;;;;;0.50;0.50;;;4.20;99.90;;;;;;5033751;28;20258;-85
2023/11/30 12:45:08;;;;;;;0.60;0.60;;;4.20;99.90;;;;;;5016185;28;20309;-86
2023/11/30 12:47:34;;;;;;;0.60;0.60;;;4.40;99.90;;;;;;4999571;28;20198;-87